createdAt,value
2022-09-11T00:01:31.358Z,2.13
2022-09-11T00:04:00.004Z,2.20
2022-09-11T00:06:30.047Z,1.90
2022-09-11T00:09:01.061Z,2.00
2022-09-11T00:11:30.494Z,1.93
2022-09-11T00:13:58.933Z,2.10
2022-09-11T00:16:28.794Z,2.10
2022-09-11T00:18:59.866Z,1.93
2022-09-11T00:21:28.410Z,2.20
2022-09-11T00:23:57.137Z,2.13
2022-09-11T00:26:25.873Z,2.30
2022-09-11T00:28:55.195Z,2.00
2022-09-11T00:31:24.931Z,2.43
2022-09-11T00:33:54.026Z,1.97
2022-09-11T00:36:24.507Z,2.30
2022-09-11T00:38:53.615Z,1.90
2022-09-11T00:41:22.723Z,1.67
2022-09-11T00:43:56.495Z,2.00
2022-09-11T00:46:26.498Z,2.07
2022-09-11T00:48:58.589Z,1.97
2022-09-11T00:51:31.397Z,2.20
2022-09-11T00:54:00.697Z,1.90
2022-09-11T00:56:31.360Z,2.03
2022-09-11T00:59:01.125Z,2.00
2022-09-11T01:01:29.800Z,1.90
2022-09-11T01:03:58.286Z,1.73
2022-09-11T01:06:28.201Z,1.87
2022-09-11T01:08:56.734Z,1.90
2022-09-11T01:11:31.239Z,2.00
2022-09-11T01:14:03.657Z,2.00
2022-09-11T01:16:35.186Z,1.90
2022-09-11T01:19:08.867Z,2.00
2022-09-11T01:21:52.327Z,1.90
2022-09-11T01:24:32.115Z,1.80
2022-09-11T01:27:12.181Z,1.90
2022-09-11T01:29:43.387Z,2.73
2022-09-11T01:32:15.256Z,1.90
2022-09-11T01:34:47.078Z,2.00
2022-09-11T01:37:18.578Z,1.87
2022-09-11T01:39:50.265Z,1.67
2022-09-11T01:42:23.290Z,1.90
2022-09-11T01:44:55.001Z,1.90
2022-09-11T01:47:23.880Z,2.27
2022-09-11T01:49:55.942Z,1.90
2022-09-11T01:52:28.139Z,1.73
2022-09-11T01:54:59.861Z,2.13
2022-09-11T01:57:30.757Z,1.87
2022-09-11T02:00:02.814Z,2.00
2022-09-11T02:02:34.870Z,2.03
2022-09-11T02:05:05.870Z,2.23
2022-09-11T02:07:36.277Z,2.10
2022-09-11T02:10:08.417Z,2.60
2022-09-11T02:12:41.657Z,1.93
2022-09-11T02:15:13.654Z,1.90
2022-09-11T02:17:45.590Z,2.00
2022-09-11T02:20:14.579Z,2.07
2022-09-11T02:22:43.261Z,2.40
2022-09-11T02:25:13.734Z,2.00
2022-09-11T02:27:42.475Z,1.93
2022-09-11T02:30:14.131Z,1.83
2022-09-11T02:32:44.681Z,1.90
2022-09-11T02:35:13.394Z,2.07
2022-09-11T02:37:48.536Z,2.33
2022-09-11T02:40:26.942Z,2.10
2022-09-11T02:43:11.025Z,2.00
2022-09-11T02:45:48.946Z,1.80
2022-09-11T02:48:24.013Z,1.80
2022-09-11T02:50:56.034Z,2.00
2022-09-11T02:53:32.043Z,1.93
2022-09-11T02:56:02.691Z,1.90
2022-09-11T02:58:34.249Z,2.00
2022-09-11T03:01:04.866Z,1.93
2022-09-11T03:03:40.235Z,1.90
2022-09-11T03:06:10.389Z,2.07
2022-09-11T03:08:38.805Z,1.97
2022-09-11T03:11:09.702Z,1.93
2022-09-11T03:13:38.320Z,1.80
2022-09-11T03:16:08.757Z,1.80
2022-09-11T03:18:37.378Z,1.70
2022-09-11T03:21:06.086Z,2.10
2022-09-11T03:23:34.619Z,1.80
2022-09-11T03:26:03.150Z,1.93
2022-09-11T03:28:32.203Z,2.00
2022-09-11T03:31:00.962Z,2.00
2022-09-11T03:33:30.952Z,1.80
2022-09-11T03:35:59.711Z,1.87
2022-09-11T03:38:28.274Z,2.03
2022-09-11T03:40:56.890Z,2.00
2022-09-11T03:43:25.333Z,2.00
2022-09-11T03:45:53.962Z,1.87
2022-09-11T03:48:22.498Z,1.93
2022-09-11T03:50:52.297Z,2.10
2022-09-11T03:53:20.873Z,2.00
2022-09-11T03:55:50.190Z,2.00
2022-09-11T03:58:19.502Z,1.77
2022-09-11T04:00:48.443Z,1.67
2022-09-11T04:03:17.716Z,2.33
2022-09-11T04:05:57.687Z,1.87
2022-09-11T04:08:27.953Z,1.90
2022-09-11T04:10:59.420Z,1.67
2022-09-11T04:13:28.695Z,2.00
2022-09-11T04:16:00.738Z,1.90
2022-09-11T04:18:30.026Z,1.77
2022-09-11T04:20:58.797Z,1.80
2022-09-11T04:23:28.618Z,3.03
2022-09-11T04:25:57.303Z,2.87
2022-09-11T04:28:25.742Z,3.43
2022-09-11T04:30:54.160Z,2.07
2022-09-11T04:33:22.814Z,1.87
2022-09-11T04:35:51.242Z,1.90
2022-09-11T04:38:19.848Z,1.87
2022-09-11T04:40:50.060Z,2.00
2022-09-11T04:43:18.558Z,1.93
2022-09-11T04:45:47.007Z,1.73
2022-09-11T04:48:15.701Z,1.77
2022-09-11T04:50:44.333Z,2.00
2022-09-11T04:53:13.585Z,1.97
2022-09-11T04:55:42.865Z,1.87
2022-09-11T04:58:14.014Z,1.97
2022-09-11T05:00:42.607Z,1.80
2022-09-11T05:03:11.665Z,1.80
2022-09-11T05:05:40.086Z,1.93
2022-09-11T05:08:08.729Z,2.40
2022-09-11T05:10:39.271Z,1.70
2022-09-11T05:13:08.487Z,2.30
2022-09-11T05:15:38.487Z,2.07
2022-09-11T05:18:07.089Z,1.93
2022-09-11T05:20:35.682Z,1.70
2022-09-11T05:23:04.245Z,2.13
2022-09-11T05:25:33.033Z,1.87
2022-09-11T05:28:01.455Z,2.23
2022-09-11T05:30:30.585Z,2.33
2022-09-11T05:33:00.582Z,1.90
2022-09-11T05:35:32.396Z,1.80
2022-09-11T05:38:01.396Z,2.30
2022-09-11T05:40:29.843Z,2.17
2022-09-11T05:42:58.265Z,1.90
2022-09-11T05:45:26.858Z,2.00
2022-09-11T05:47:56.027Z,2.17
2022-09-11T05:50:25.947Z,2.27
2022-09-11T05:52:55.193Z,2.10
2022-09-11T05:55:23.601Z,1.90
2022-09-11T05:57:53.541Z,1.80
2022-09-11T06:00:22.637Z,1.90
2022-09-11T06:02:51.133Z,1.80
2022-09-11T06:05:19.771Z,2.20
2022-09-11T06:07:51.217Z,2.00
2022-09-11T06:10:19.674Z,2.07
2022-09-11T06:12:48.230Z,2.20
2022-09-11T06:15:42.923Z,2.23
2022-09-11T06:18:07.262Z,2.37
2022-09-11T06:20:35.846Z,3.20
2022-09-11T06:23:09.130Z,3.47
2022-09-11T06:25:38.225Z,2.53
2022-09-11T06:28:06.667Z,2.10
2022-09-11T06:30:35.394Z,2.20
2022-09-11T06:33:04.095Z,2.80
2022-09-11T06:35:33.337Z,2.30
2022-09-11T06:38:02.846Z,2.47
2022-09-11T06:40:32.723Z,2.60
2022-09-11T06:43:01.154Z,2.40
2022-09-11T06:45:31.236Z,2.20
2022-09-11T06:47:59.850Z,2.43
2022-09-11T06:50:28.257Z,2.30
2022-09-11T06:52:57.301Z,2.03
2022-09-11T06:55:27.661Z,2.43
2022-09-11T06:57:57.478Z,2.30
2022-09-11T07:00:26.231Z,2.40
2022-09-11T07:02:56.510Z,2.00
2022-09-11T07:05:25.786Z,2.23
2022-09-11T07:07:55.484Z,2.30
2022-09-11T07:10:24.798Z,2.30
2022-09-11T07:12:54.807Z,2.23
2022-09-11T07:15:24.645Z,2.30
2022-09-11T07:17:53.461Z,2.30
2022-09-11T07:20:22.342Z,2.13
2022-09-11T07:22:50.842Z,2.80
2022-09-11T07:25:19.613Z,2.20
2022-09-11T07:27:48.058Z,2.47
2022-09-11T07:30:16.511Z,2.60
2022-09-11T07:32:46.590Z,2.30
2022-09-11T07:35:17.570Z,2.53
2022-09-11T07:37:50.606Z,2.20
2022-09-11T07:40:19.443Z,2.30
2022-09-11T07:42:47.917Z,2.40
2022-09-11T07:45:19.777Z,2.10
2022-09-11T07:47:52.468Z,2.30
2022-09-11T07:50:20.886Z,2.20
2022-09-11T07:52:49.415Z,2.13
2022-09-11T07:55:19.129Z,2.37
2022-09-11T07:57:49.692Z,2.13
2022-09-11T08:00:18.145Z,2.03
2022-09-11T08:02:46.765Z,2.13
2022-09-11T08:05:16.585Z,1.80
2022-09-11T08:07:45.034Z,2.00
2022-09-11T08:10:27.165Z,1.97
2022-09-11T08:12:59.773Z,2.00
2022-09-11T08:15:28.665Z,2.20
2022-09-11T08:17:57.114Z,2.00
2022-09-11T08:20:26.987Z,1.90
2022-09-11T08:22:55.737Z,2.03
2022-09-11T08:25:24.159Z,1.90
2022-09-11T08:27:53.230Z,2.10
2022-09-11T08:30:21.977Z,1.80
2022-09-11T08:32:50.417Z,2.10
2022-09-11T08:35:19.153Z,2.03
2022-09-11T08:37:54.136Z,1.90
2022-09-11T08:40:23.294Z,2.00
2022-09-11T08:42:53.285Z,1.90
2022-09-11T08:45:22.613Z,1.90
2022-09-11T08:47:53.501Z,1.80
2022-09-11T08:50:24.597Z,2.00
2022-09-11T08:52:56.632Z,2.00
2022-09-11T08:55:30.284Z,1.90
2022-09-11T08:58:02.221Z,1.90
2022-09-11T09:00:34.282Z,1.70
2022-09-11T09:03:18.162Z,2.00
2022-09-11T09:05:50.394Z,2.07
2022-09-11T09:08:26.785Z,1.70
2022-09-11T09:10:59.126Z,1.67
2022-09-11T09:13:34.560Z,1.60
2022-09-11T09:16:09.930Z,1.87
2022-09-11T09:18:40.211Z,2.20
2022-09-11T09:21:14.938Z,1.70
2022-09-11T09:23:46.693Z,2.10
2022-09-11T09:26:18.985Z,1.80
2022-09-11T09:28:48.713Z,1.90
2022-09-11T09:31:18.664Z,1.90
2022-09-11T09:33:49.698Z,2.03
2022-09-11T09:36:20.937Z,2.03
2022-09-11T09:38:50.906Z,1.70
2022-09-11T09:41:29.239Z,2.30
2022-09-11T09:44:04.863Z,2.00
2022-09-11T09:46:38.119Z,2.00
2022-09-11T09:49:06.718Z,1.83
2022-09-11T09:51:36.333Z,2.03
2022-09-11T09:54:06.347Z,1.87
2022-09-11T09:56:37.781Z,1.60
2022-09-11T09:59:14.862Z,1.63
2022-09-11T10:01:51.049Z,2.00
2022-09-11T10:04:21.846Z,1.80
2022-09-11T10:06:52.141Z,1.73
2022-09-11T10:09:26.805Z,1.67
2022-09-11T10:11:58.428Z,2.00
2022-09-11T10:14:49.691Z,1.63
2022-09-11T10:17:21.713Z,2.10
2022-09-11T10:19:50.970Z,1.97
2022-09-11T10:22:24.665Z,1.50
2022-09-11T10:25:13.755Z,1.67
2022-09-11T10:27:45.313Z,1.90
2022-09-11T10:30:26.207Z,1.90
2022-09-11T10:32:56.138Z,1.80
2022-09-11T10:35:27.892Z,1.80
2022-09-11T10:38:13.666Z,1.70
2022-09-11T10:40:47.346Z,1.77
2022-09-11T10:43:24.708Z,1.70
2022-09-11T10:46:06.572Z,1.77
2022-09-11T10:48:35.534Z,1.27
2022-09-11T10:51:07.574Z,1.67
2022-09-11T10:53:39.753Z,1.47
2022-09-11T10:56:12.051Z,1.80
2022-09-11T10:58:41.809Z,1.60
2022-09-11T11:01:10.689Z,1.60
2022-09-11T11:03:39.303Z,1.87
2022-09-11T11:06:14.735Z,1.87
2022-09-11T11:08:59.824Z,1.77
2022-09-11T11:11:35.939Z,1.77
2022-09-11T11:14:15.536Z,1.60
2022-09-11T11:16:48.317Z,1.90
2022-09-11T11:19:24.103Z,1.87
2022-09-11T11:21:56.871Z,1.90
2022-09-11T11:24:34.193Z,1.67
2022-09-11T11:27:11.935Z,1.63
2022-09-11T11:29:57.974Z,1.60
2022-09-11T11:32:31.066Z,1.70
2022-09-11T11:35:08.478Z,1.60
2022-09-11T11:37:40.305Z,1.70
2022-09-11T11:40:15.205Z,1.70
2022-09-11T11:42:50.734Z,1.57
2022-09-11T11:45:24.418Z,1.83
2022-09-11T11:47:55.065Z,1.50
2022-09-11T11:50:31.079Z,1.57
2022-09-11T11:53:04.427Z,1.37
2022-09-11T11:55:39.036Z,1.57
2022-09-11T11:58:14.391Z,2.17
2022-09-11T12:00:45.935Z,1.63
2022-09-11T12:03:15.902Z,1.60
2022-09-11T12:05:44.563Z,1.40
2022-09-11T12:08:14.694Z,1.87
2022-09-11T12:10:45.053Z,1.60
2022-09-11T12:13:16.341Z,1.70
2022-09-11T12:16:00.031Z,1.40
2022-09-11T12:18:28.509Z,1.80
2022-09-11T12:21:22.245Z,1.60
2022-09-11T12:24:09.325Z,1.60
2022-09-11T12:26:39.473Z,1.70
2022-09-11T12:29:26.489Z,1.80
2022-09-11T12:32:14.022Z,1.50
2022-09-11T12:34:57.291Z,1.50
2022-09-11T12:37:32.257Z,1.53
2022-09-11T12:40:05.029Z,1.80
2022-09-11T12:42:58.341Z,1.60
2022-09-11T12:45:39.649Z,1.47
2022-09-11T12:48:09.434Z,1.60
2022-09-11T12:50:38.358Z,1.60
2022-09-11T12:53:09.183Z,1.27
2022-09-11T12:55:40.766Z,1.70
2022-09-11T12:58:25.173Z,1.60
2022-09-11T13:01:02.314Z,1.40
2022-09-11T13:03:31.431Z,1.63
2022-09-11T13:06:01.158Z,1.33
2022-09-11T13:08:31.486Z,1.50
2022-09-11T13:11:15.486Z,1.47
2022-09-11T13:13:47.037Z,1.63
2022-09-11T13:16:25.581Z,1.40
2022-09-11T13:18:54.442Z,1.80
2022-09-11T13:21:26.299Z,1.50
2022-09-11T13:23:56.855Z,1.63
2022-09-11T13:26:27.246Z,1.60
2022-09-11T13:28:58.870Z,1.67
2022-09-11T13:31:33.865Z,1.65
2022-09-11T13:34:03.239Z,1.60
2022-09-11T13:36:33.265Z,1.60
2022-09-11T13:39:03.834Z,1.30
2022-09-11T13:41:34.246Z,1.80
2022-09-11T13:44:04.405Z,1.50
2022-09-11T13:46:34.829Z,1.60
2022-09-11T13:49:20.837Z,1.80
2022-09-11T13:51:49.805Z,1.33
2022-09-11T13:54:20.300Z,1.60
2022-09-11T13:57:06.995Z,1.60
2022-09-11T13:59:43.041Z,1.90
2022-09-11T14:02:31.274Z,1.57
2022-09-11T14:05:04.757Z,1.63
2022-09-11T14:07:34.557Z,1.80
2022-09-11T14:10:05.173Z,1.50
2022-09-11T14:12:34.122Z,1.60
2022-09-11T14:15:09.038Z,1.70
2022-09-11T14:17:42.113Z,1.57
2022-09-11T14:20:16.870Z,1.67
2022-09-11T14:22:45.334Z,1.80
2022-09-11T14:25:22.087Z,1.90
2022-09-11T14:27:50.570Z,1.37
2022-09-11T14:30:29.455Z,1.40
2022-09-11T14:33:15.039Z,1.50
2022-09-11T14:35:44.114Z,1.40
2022-09-11T14:38:13.538Z,1.80
2022-09-11T14:40:46.023Z,1.90
2022-09-11T14:43:14.906Z,1.40
2022-09-11T14:45:44.742Z,1.58
2022-09-11T14:48:14.623Z,1.70
2022-09-11T14:50:43.274Z,1.77
2022-09-11T14:53:17.970Z,1.50
2022-09-11T14:55:46.869Z,1.40
2022-09-11T14:58:15.466Z,1.58
2022-09-11T15:00:45.390Z,1.58
2022-09-11T15:03:14.474Z,1.70
2022-09-11T15:05:45.217Z,1.50
2022-09-11T15:08:13.755Z,1.50
2022-09-11T15:10:42.665Z,1.90
2022-09-11T15:13:11.157Z,1.58
2022-09-11T15:15:40.666Z,1.70
2022-09-11T15:18:10.671Z,1.45
2022-09-11T15:20:39.750Z,1.60
2022-09-11T15:23:08.425Z,1.50
2022-09-11T15:25:36.849Z,1.63
2022-09-11T15:28:06.686Z,1.50
2022-09-11T15:30:35.318Z,1.58
2022-09-11T15:33:03.734Z,1.90
2022-09-11T15:35:33.657Z,1.80
2022-09-11T15:38:04.441Z,1.57
2022-09-11T15:40:33.328Z,1.60
2022-09-11T15:43:02.217Z,1.70
2022-09-11T15:45:31.991Z,1.83
2022-09-11T15:48:00.505Z,1.80
2022-09-11T15:50:30.432Z,1.67
2022-09-11T15:53:01.916Z,1.80
2022-09-11T15:55:31.331Z,1.70
2022-09-11T15:58:01.567Z,1.63
2022-09-11T16:00:30.187Z,1.60
2022-09-11T16:02:58.750Z,1.60
2022-09-11T16:05:27.338Z,2.00
2022-09-11T16:07:55.753Z,1.77
2022-09-11T16:10:25.899Z,1.50
2022-09-11T16:12:58.131Z,1.87
2022-09-11T16:15:27.771Z,1.63
2022-09-11T16:17:56.185Z,1.57
2022-09-11T16:20:25.040Z,1.47
2022-09-11T16:22:54.839Z,1.47
2022-09-11T16:25:23.365Z,1.90
2022-09-11T16:27:53.356Z,1.53
2022-09-11T16:33:10.630Z,1.90
2022-09-11T16:35:39.391Z,1.80
2022-09-11T16:38:08.853Z,2.78
2022-09-11T16:40:37.566Z,2.17
2022-09-11T16:43:07.362Z,2.30
2022-09-11T16:45:37.145Z,2.00
2022-09-11T16:48:09.875Z,2.50
2022-09-11T16:50:38.312Z,3.27
2022-09-11T16:53:06.874Z,2.30
2022-09-11T16:55:35.426Z,2.53
2022-09-11T16:58:04.140Z,3.00
2022-09-11T17:00:36.123Z,2.93
2022-09-11T17:03:04.838Z,2.70
2022-09-11T17:05:33.297Z,2.70
2022-09-11T17:08:01.863Z,2.70
2022-09-11T17:10:30.477Z,2.60
2022-09-11T17:12:59.053Z,2.43
2022-09-11T17:15:28.442Z,2.43
2022-09-11T17:17:58.310Z,2.40
2022-09-11T17:20:26.739Z,2.40
2022-09-11T17:22:58.165Z,2.37
2022-09-11T17:25:26.990Z,2.40
2022-09-11T17:27:56.246Z,2.57
2022-09-11T17:30:24.672Z,2.90
2022-09-11T17:32:53.257Z,2.93
2022-09-11T17:35:23.934Z,2.30
2022-09-11T17:37:52.696Z,2.50
2022-09-11T17:40:22.793Z,2.83
2022-09-11T17:42:51.232Z,2.77
2022-09-11T17:45:19.642Z,3.10
2022-09-11T17:47:48.473Z,2.97
2022-09-11T17:50:16.913Z,3.20
2022-09-11T17:52:46.725Z,3.53
2022-09-11T17:55:15.525Z,3.27
2022-09-11T17:57:45.463Z,3.60
2022-09-11T18:00:14.445Z,3.03
2022-09-11T18:02:44.191Z,3.47
2022-09-11T18:05:12.674Z,3.10
2022-09-11T18:07:42.238Z,3.33
2022-09-11T18:10:12.420Z,2.90
2022-09-11T18:12:40.932Z,3.23
2022-09-11T18:15:10.046Z,3.00
2022-09-11T18:17:39.657Z,2.53
2022-09-11T18:20:09.790Z,3.10
2022-09-11T18:22:39.910Z,2.80
2022-09-11T18:25:09.945Z,2.60
2022-09-11T18:27:40.257Z,2.90
2022-09-11T18:30:09.934Z,2.60
2022-09-11T18:32:39.992Z,2.67
2022-09-11T18:35:09.415Z,2.60
2022-09-11T18:37:37.837Z,2.57
2022-09-11T18:40:07.552Z,2.30
2022-09-11T18:42:36.024Z,2.10
2022-09-11T18:45:07.072Z,2.40
2022-09-11T18:47:35.795Z,2.47
2022-09-11T18:50:04.232Z,1.77
2022-09-11T18:52:33.638Z,2.40
2022-09-11T18:55:03.126Z,1.77
2022-09-11T18:57:31.550Z,2.00
2022-09-11T19:00:00.446Z,2.00
2022-09-11T19:02:30.545Z,2.10
2022-09-11T19:05:00.183Z,2.00
2022-09-11T19:07:28.753Z,1.90
2022-09-11T19:09:57.725Z,2.07
2022-09-11T19:12:26.892Z,2.00
2022-09-11T19:14:55.523Z,2.00
2022-09-11T19:17:24.230Z,1.90
2022-09-11T19:19:54.382Z,1.93
2022-09-11T19:22:24.866Z,1.73
2022-09-11T19:24:53.481Z,2.10
2022-09-11T19:27:21.903Z,1.83
2022-09-11T19:29:50.530Z,1.87
2022-09-11T19:32:19.100Z,1.80
2022-09-11T19:34:47.685Z,1.77
2022-09-11T19:37:17.680Z,1.67
2022-09-11T19:39:46.252Z,1.70
2022-09-11T19:42:14.699Z,1.63
2022-09-11T19:44:44.366Z,1.90
2022-09-11T19:47:12.972Z,1.70
2022-09-11T19:49:41.410Z,1.73
2022-09-11T19:52:11.686Z,1.70
2022-09-11T19:54:41.738Z,1.50
2022-09-11T19:57:10.194Z,1.80
2022-09-11T19:59:38.693Z,1.60
2022-09-11T20:02:07.423Z,1.77
2022-09-11T20:04:35.917Z,1.57
2022-09-11T20:07:05.505Z,1.70
2022-09-11T20:09:34.020Z,1.40
2022-09-11T20:12:04.042Z,1.60
2022-09-11T20:14:32.586Z,1.70
2022-09-11T20:17:01.786Z,1.30
2022-09-11T20:19:30.239Z,1.60
2022-09-11T20:22:00.621Z,1.60
2022-09-11T20:24:29.343Z,1.73
2022-09-11T20:26:57.765Z,1.40
2022-09-11T20:29:28.021Z,1.30
2022-09-11T20:31:56.737Z,1.50
2022-09-11T20:34:28.005Z,1.60
2022-09-11T20:37:00.796Z,1.77
2022-09-11T20:39:29.572Z,1.60
2022-09-11T20:41:58.033Z,1.73
2022-09-11T20:44:27.934Z,1.70
2022-09-11T20:46:56.567Z,1.60
2022-09-11T20:49:25.018Z,1.67
2022-09-11T20:51:53.597Z,1.40
2022-09-11T20:54:22.314Z,1.40
2022-09-11T20:56:50.737Z,1.60
2022-09-11T20:59:19.241Z,1.40
2022-09-11T21:01:49.325Z,1.40
2022-09-11T21:04:17.822Z,1.50
2022-09-11T21:06:47.730Z,1.70
2022-09-11T21:09:16.374Z,1.60
2022-09-11T21:11:44.847Z,1.43
2022-09-11T21:14:13.779Z,1.60
2022-09-11T21:16:42.423Z,1.40
2022-09-11T21:19:12.502Z,1.70
2022-09-11T21:21:41.253Z,1.70
2022-09-11T21:24:12.875Z,2.50
2022-09-11T21:26:42.562Z,1.57
2022-09-11T21:29:13.131Z,1.90
2022-09-11T21:31:41.613Z,1.50
2022-09-11T21:34:11.147Z,1.40
2022-09-11T21:36:41.074Z,1.73
2022-09-11T21:39:09.518Z,1.80
2022-09-11T21:41:38.261Z,1.50
2022-09-11T21:44:06.674Z,1.77
2022-09-11T21:46:35.331Z,1.70
2022-09-11T21:49:03.966Z,1.60
2022-09-11T21:51:32.421Z,1.90
2022-09-11T21:54:04.577Z,1.60
2022-09-11T21:56:34.901Z,1.77
2022-09-11T21:59:03.605Z,1.90
2022-09-11T22:01:32.954Z,1.67
2022-09-11T22:04:02.166Z,1.60
2022-09-11T22:06:32.450Z,1.60
2022-09-11T22:09:02.390Z,1.83
2022-09-11T22:11:30.975Z,1.53
2022-09-11T22:13:59.414Z,1.70
2022-09-11T22:16:28.077Z,1.90
2022-09-11T22:18:57.057Z,1.67
2022-09-11T22:21:25.632Z,1.57
2022-09-11T22:23:55.165Z,1.73
2022-09-11T22:26:25.209Z,1.60
2022-09-11T22:28:53.685Z,2.10
2022-09-11T22:31:23.884Z,1.67
2022-09-11T22:33:52.854Z,1.70
2022-09-11T22:36:23.466Z,1.93
2022-09-11T22:38:52.283Z,1.67
2022-09-11T22:41:21.048Z,1.70
2022-09-11T22:43:51.049Z,1.70
2022-09-11T22:46:20.837Z,1.77
2022-09-11T22:48:49.463Z,1.83
2022-09-11T22:51:18.062Z,1.60
2022-09-11T22:53:46.968Z,1.97
2022-09-11T22:56:15.747Z,1.90
2022-09-11T22:58:44.387Z,2.00
2022-09-11T23:01:20.990Z,1.60
2022-09-11T23:03:50.578Z,1.60
2022-09-11T23:06:36.977Z,1.90
2022-09-11T23:09:05.858Z,1.90
2022-09-11T23:11:34.321Z,1.40
2022-09-11T23:14:02.937Z,1.50
2022-09-11T23:16:33.036Z,1.60
2022-09-11T23:19:02.321Z,1.60
2022-09-11T23:21:31.666Z,2.13
2022-09-11T23:24:00.898Z,2.00
2022-09-11T23:26:30.183Z,1.80
2022-09-11T23:28:58.797Z,1.73
2022-09-11T23:31:28.792Z,1.93
2022-09-11T23:33:59.862Z,2.37
2022-09-11T23:36:29.453Z,1.90
2022-09-11T23:38:58.325Z,1.80
2022-09-11T23:41:26.890Z,1.70
2022-09-11T23:43:55.672Z,2.20
2022-09-11T23:46:24.254Z,2.10
2022-09-11T23:48:52.782Z,1.83
2022-09-11T23:51:22.707Z,2.23
2022-09-11T23:53:51.805Z,2.53
2022-09-11T23:56:21.071Z,2.20
2022-09-11T23:58:49.515Z,1.97
